Time;durP1;ratioP1;P1;durP2;ratioP2;P2;SDS_P1;SDS_P2;PMS_P1;PMS_P2;Temp;Humidity;BMP_temperature;BMP_pressure;BME280_temperature;BME280_humidity;BME280_pressure;Samples;Min_cycle;Max_cycle;Signal;HPM_P1;HPM_P2
2021/04/15 00:00:48;;;;;;;6.67;5.97;;;1.20;99.90;;;;;;4952607;28;20450;-83
2021/04/15 00:03:21;;;;;;;7.63;6.60;;;1.10;99.90;;;;;;4953398;28;20460;-83
2021/04/15 00:05:48;;;;;;;7.07;6.37;;;1.00;99.90;;;;;;4975175;28;20480;-83
2021/04/15 00:08:16;;;;;;;8.63;7.17;;;0.80;99.90;;;;;;4969174;28;20448;-83
2021/04/15 00:10:45;;;;;;;7.50;6.73;;;0.70;99.90;;;;;;4957185;28;20617;-82
2021/04/15 00:13:22;;;;;;;7.83;7.03;;;0.60;99.90;;;;;;4972723;28;20436;-83
2021/04/15 00:15:49;;;;;;;6.70;6.00;;;0.50;99.90;;;;;;4973703;28;20449;-82
2021/04/15 00:18:15;;;;;;;6.80;6.10;;;0.40;99.90;;;;;;4956615;28;20507;-83
2021/04/15 00:20:41;;;;;;;6.40;5.80;;;0.40;99.90;;;;;;4956255;28;20467;-82
2021/04/15 00:23:08;;;;;;;6.73;6.13;;;0.50;99.90;;;;;;4966234;28;20943;-83
2021/04/15 00:25:33;;;;;;;8.80;7.07;;;0.50;99.90;;;;;;4962615;28;20348;-83
2021/04/15 00:27:59;;;;;;;7.10;6.40;;;0.50;99.90;;;;;;4974697;28;20934;-83
2021/04/15 00:30:25;;;;;;;7.20;5.90;;;0.50;99.90;;;;;;4956184;28;20201;-83
2021/04/15 00:32:51;;;;;;;8.77;7.50;;;0.40;99.90;;;;;;4956904;28;20251;-83
2021/04/15 00:35:18;;;;;;;8.60;7.27;;;0.50;99.90;;;;;;4958307;28;20194;-83
2021/04/15 00:37:44;;;;;;;8.70;7.13;;;0.40;99.90;;;;;;4960883;28;20280;-83
2021/04/15 00:40:11;;;;;;;8.13;7.23;;;0.40;99.90;;;;;;4954613;28;20445;-83
2021/04/15 00:42:37;;;;;;;8.83;7.93;;;0.40;99.90;;;;;;4954511;28;20347;-82
2021/04/15 00:45:41;;;;;;;9.83;7.73;;;0.30;99.90;;;;;;4945199;28;20478;-82
2021/04/15 00:48:29;;;;;;;8.80;7.07;;;0.40;99.90;;;;;;4957340;28;20441;-82
2021/04/15 00:51:10;;;;;;;8.47;6.60;;;0.40;99.90;;;;;;4972699;28;20507;-82
2021/04/15 00:53:53;;;;;;;10.40;6.87;;;0.50;99.90;;;;;;4970032;28;20452;-82
2021/04/15 00:56:19;;;;;;;10.00;6.90;;;0.40;99.90;;;;;;4961433;28;20436;-82
2021/04/15 00:58:46;;;;;;;10.83;8.43;;;0.50;99.90;;;;;;4970976;28;20495;-82
2021/04/15 01:01:12;;;;;;;10.83;7.43;;;0.50;99.90;;;;;;4976095;28;20528;-82
2021/04/15 01:03:38;;;;;;;8.53;6.97;;;0.50;99.90;;;;;;4972209;28;20951;-82
2021/04/15 01:06:08;;;;;;;8.67;7.77;;;0.50;99.90;;;;;;4952907;28;20209;-82
2021/04/15 01:08:34;;;;;;;10.43;7.67;;;0.50;99.90;;;;;;4969512;28;20496;-82
2021/04/15 01:11:06;;;;;;;8.60;7.00;;;0.50;99.90;;;;;;4955921;28;20475;-82
2021/04/15 01:13:41;;;;;;;7.73;6.93;;;0.40;99.90;;;;;;4969256;28;20460;-82
2021/04/15 01:16:35;;;;;;;8.37;6.80;;;0.40;99.90;;;;;;4966614;28;20471;-83
2021/04/15 01:19:26;;;;;;;6.67;6.00;;;0.30;99.90;;;;;;4953935;28;20452;-82
2021/04/15 01:22:27;;;;;;;9.70;6.60;;;0.30;99.90;;;;;;4954431;28;20511;-82
2021/04/15 01:25:04;;;;;;;8.23;7.40;;;0.10;99.90;;;;;;4971048;28;20484;-82
2021/04/15 01:27:42;;;;;;;8.30;7.23;;;0.00;99.90;;;;;;4972270;28;20958;-82
2021/04/15 01:30:18;;;;;;;8.97;6.60;;;0.10;99.90;;;;;;4957581;28;21774;-82
2021/04/15 01:33:16;;;;;;;9.20;7.47;;;0.10;99.90;;;;;;4954691;28;20464;-82
2021/04/15 01:35:54;;;;;;;9.07;8.17;;;0.20;99.90;;;;;;4942379;28;20487;-83
2021/04/15 01:38:29;;;;;;;9.80;7.87;;;0.20;99.90;;;;;;4952578;28;20984;-82
2021/04/15 01:40:59;;;;;;;9.47;7.30;;;0.10;99.90;;;;;;4957909;28;20547;-82
2021/04/15 01:43:33;;;;;;;11.60;8.35;;;-0.10;99.90;;;;;;4947818;28;20556;-82
2021/04/15 01:46:09;;;;;;;12.20;8.50;;;-0.20;99.90;;;;;;4968990;28;20259;-82
2021/04/15 01:48:42;;;;;;;10.70;8.97;;;-0.20;99.90;;;;;;4958555;28;20212;-82
2021/04/15 01:51:11;;;;;;;10.57;8.10;;;-0.20;99.90;;;;;;4973200;28;20444;-82
2021/04/15 01:53:40;;;;;;;8.23;7.20;;;-0.10;99.90;;;;;;4971379;28;20446;-82
2021/04/15 01:56:14;;;;;;;8.60;7.27;;;-0.10;99.90;;;;;;4956008;28;20465;-82
2021/04/15 01:58:49;;;;;;;11.00;8.87;;;-0.10;99.90;;;;;;4953219;28;20466;-82
2021/04/15 02:01:40;;;;;;;11.73;8.93;;;-0.10;99.90;;;;;;4971383;28;20787;-83
2021/04/15 02:04:11;;;;;;;12.13;8.37;;;0.00;99.90;;;;;;4966805;28;20495;-83
2021/04/15 02:06:42;;;;;;;8.63;7.73;;;-0.10;99.90;;;;;;4951995;28;20463;-83
2021/04/15 02:09:11;;;;;;;9.53;8.37;;;-0.20;99.90;;;;;;4955241;28;20520;-83
2021/04/15 02:11:48;;;;;;;11.10;8.00;;;-0.10;99.90;;;;;;4952893;28;20450;-82
2021/04/15 02:14:23;;;;;;;10.10;7.93;;;0.00;99.90;;;;;;4954204;28;20473;-82
2021/04/15 02:17:13;;;;;;;12.67;8.10;;;-0.10;99.90;;;;;;4953912;28;20531;-83
2021/04/15 02:22:54;;;;;;;10.38;9.07;;;-0.20;99.90;;;;;;4972406;28;20206;-82
2021/04/15 02:25:32;;;;;;;11.23;8.50;;;-0.10;99.90;;;;;;4969040;28;20221;-82
2021/04/15 02:28:25;;;;;;;12.63;8.00;;;-0.30;99.90;;;;;;4970198;28;20531;-82
2021/04/15 02:31:24;;;;;;;10.07;8.37;;;-0.40;99.90;;;;;;4955313;28;20468;-84
2021/04/15 02:33:54;;;;;;;10.10;7.47;;;-0.50;99.90;;;;;;4953083;28;20445;-83
2021/04/15 02:36:22;;;;;;;8.38;7.45;;;-0.50;99.90;;;;;;4953967;28;20193;-83
2021/04/15 02:38:56;;;;;;;9.02;7.50;;;-0.50;99.90;;;;;;4957996;28;20190;-83
2021/04/15 02:41:27;;;;;;;9.70;8.17;;;-0.50;99.90;;;;;;4952996;28;20215;-83
2021/04/15 02:44:06;;;;;;;9.10;7.97;;;-0.60;99.90;;;;;;4971323;28;20440;-82
2021/04/15 02:46:39;;;;;;;10.80;8.17;;;-0.60;99.90;;;;;;4948367;28;20530;-82
2021/04/15 02:49:08;;;;;;;8.63;7.60;;;-0.70;99.90;;;;;;4953037;28;20458;-83
2021/04/15 02:52:09;;;;;;;10.20;9.10;;;-0.70;99.90;;;;;;4946113;28;20461;-83
2021/04/15 02:54:41;;;;;;;11.38;8.20;;;-0.70;99.90;;;;;;4958614;28;20460;-83
2021/04/15 02:57:12;;;;;;;9.17;8.20;;;-0.60;99.90;;;;;;4974343;28;20244;-82
2021/04/15 03:00:03;;;;;;;9.83;8.10;;;-0.50;99.90;;;;;;4976062;28;20780;-83
2021/04/15 03:02:40;;;;;;;9.73;8.73;;;-0.50;99.90;;;;;;4938481;28;20511;-82
2021/04/15 03:05:26;;;;;;;9.50;8.10;;;-0.50;99.90;;;;;;4956702;28;20237;-82
2021/04/15 03:07:55;;;;;;;13.10;9.33;;;-0.50;99.90;;;;;;4958660;28;20240;-82
2021/04/15 03:10:30;;;;;;;12.05;9.43;;;-0.60;99.90;;;;;;4977908;28;20468;-82
2021/04/15 03:13:12;;;;;;;12.25;9.70;;;-0.60;99.90;;;;;;4958021;28;20659;-82
2021/04/15 03:15:45;;;;;;;11.73;9.40;;;-0.80;99.90;;;;;;4956732;28;20272;-83
2021/04/15 03:18:16;;;;;;;13.02;9.70;;;-0.90;99.90;;;;;;4960300;28;20190;-83
2021/04/15 03:20:50;;;;;;;11.45;9.65;;;-1.00;99.90;;;;;;4961751;28;20245;-84
2021/04/15 03:23:26;;;;;;;11.20;9.27;;;-1.00;99.90;;;;;;4958506;28;20197;-83
2021/04/15 03:25:55;;;;;;;11.25;9.55;;;-0.90;99.90;;;;;;4958948;28;20209;-82
2021/04/15 03:28:45;;;;;;;12.70;9.50;;;-0.80;99.90;;;;;;4971194;28;20719;-82
2021/04/15 03:31:17;;;;;;;12.68;9.00;;;-0.70;99.90;;;;;;4952867;28;20564;-82
2021/04/15 03:33:50;;;;;;;10.60;8.77;;;-0.70;99.90;;;;;;4974481;28;20185;-81
2021/04/15 03:36:27;;;;;;;13.43;9.05;;;-0.70;99.90;;;;;;4972144;28;20205;-82
2021/04/15 03:39:01;;;;;;;10.07;9.05;;;-0.70;99.90;;;;;;4957830;28;20343;-82
2021/04/15 03:41:35;;;;;;;9.57;8.57;;;-0.70;99.90;;;;;;4987566;28;20182;-82
2021/04/15 03:44:13;;;;;;;11.50;8.57;;;-0.80;99.90;;;;;;4945456;28;20209;-82
2021/04/15 03:47:01;;;;;;;11.45;9.38;;;-0.90;99.90;;;;;;4975941;28;20317;-82
2021/04/15 03:49:38;;;;;;;12.10;9.57;;;-0.90;99.90;;;;;;4972519;28;20186;-82
2021/04/15 03:52:13;;;;;;;12.80;9.40;;;-1.00;99.90;;;;;;4957697;28;20224;-82
2021/04/15 03:54:46;;;;;;;12.20;9.40;;;-1.10;99.90;;;;;;4955357;28;20186;-81
2021/04/15 03:57:19;;;;;;;12.30;9.30;;;-1.10;99.90;;;;;;4985141;28;20189;-81
2021/04/15 04:00:01;;;;;;;11.45;9.10;;;-1.10;99.90;;;;;;4973633;28;20624;-82
2021/04/15 04:02:32;;;;;;;10.85;9.15;;;-0.90;99.90;;;;;;4955716;28;20190;-83
2021/04/15 04:05:05;;;;;;;11.35;9.90;;;-0.90;99.90;;;;;;4950468;28;20494;-83
2021/04/15 04:07:40;;;;;;;11.23;9.98;;;-0.80;99.90;;;;;;4944673;28;20186;-83
2021/04/15 04:10:33;;;;;;;12.25;9.65;;;-0.80;99.90;;;;;;4953578;28;20276;-82
2021/04/15 04:13:23;;;;;;;14.52;9.50;;;-0.90;99.90;;;;;;4954912;28;20559;-83
2021/04/15 04:16:01;;;;;;;13.63;10.30;;;-1.00;99.90;;;;;;4955327;28;20259;-83
2021/04/15 04:18:31;;;;;;;14.98;10.20;;;-1.30;99.90;;;;;;4953088;28;20214;-83
2021/04/15 04:21:19;;;;;;;14.15;11.00;;;-1.40;99.90;;;;;;4935563;28;20615;-82
2021/04/15 04:24:02;;;;;;;17.20;12.38;;;-1.40;99.90;;;;;;4946915;28;20190;-82
2021/04/15 04:26:40;;;;;;;12.80;9.73;;;-1.30;99.90;;;;;;4955230;28;20232;-83
2021/04/15 04:29:18;;;;;;;15.63;11.63;;;-1.40;99.90;;;;;;4966073;28;20190;-82
2021/04/15 04:31:46;;;;;;;13.75;10.45;;;-1.40;99.90;;;;;;4963269;28;20197;-82
2021/04/15 04:34:15;;;;;;;14.60;11.48;;;-1.50;99.90;;;;;;4956137;28;20717;-83
2021/04/15 04:36:42;;;;;;;15.80;11.35;;;-1.40;99.90;;;;;;4967119;28;20221;-83
2021/04/15 04:39:12;;;;;;;15.00;10.32;;;-1.40;99.90;;;;;;4969269;28;20189;-84
2021/04/15 04:41:56;;;;;;;13.52;10.52;;;-1.40;99.90;;;;;;4969331;28;20209;-84
2021/04/15 04:44:43;;;;;;;16.15;11.95;;;-1.40;99.90;;;;;;4952652;28;20356;-83
2021/04/15 04:47:31;;;;;;;17.85;13.05;;;-1.40;99.90;;;;;;4954688;28;20196;-82
2021/04/15 04:50:06;;;;;;;12.13;10.30;;;-1.30;99.90;;;;;;4958925;28;20277;-82
2021/04/15 04:52:33;;;;;;;17.00;11.45;;;-1.30;99.90;;;;;;4976856;28;20197;-82
2021/04/15 04:55:00;;;;;;;12.18;9.77;;;-1.20;99.90;;;;;;4960797;28;20200;-82
2021/04/15 04:57:36;;;;;;;12.75;10.75;;;-1.20;99.90;;;;;;4972062;28;20217;-82
2021/04/15 05:00:08;;;;;;;13.10;10.52;;;-1.10;99.90;;;;;;4960845;28;20468;-83
2021/04/15 05:02:34;;;;;;;14.70;10.68;;;-1.00;99.90;;;;;;4977754;28;20198;-83
2021/04/15 05:05:03;;;;;;;13.07;11.02;;;-0.90;99.90;;;;;;4972844;28;20263;-83
2021/04/15 05:07:33;;;;;;;17.35;11.98;;;-0.90;99.90;;;;;;4952599;28;20189;-83
2021/04/15 05:09:59;;;;;;;13.95;10.95;;;-1.00;99.90;;;;;;4955846;28;20201;-83
2021/04/15 05:12:27;;;;;;;16.25;11.55;;;-1.00;99.90;;;;;;4972907;28;20190;-83
2021/04/15 05:14:55;;;;;;;13.30;11.20;;;-0.90;99.90;;;;;;4957705;28;20190;-83
2021/04/15 05:17:37;;;;;;;15.07;11.63;;;-0.80;99.90;;;;;;4974655;28;20188;-84
2021/04/15 05:20:07;;;;;;;14.45;11.20;;;-0.70;99.90;;;;;;4974513;28;20194;-83
2021/04/15 05:22:36;;;;;;;13.88;11.10;;;-0.60;99.90;;;;;;4956539;28;20203;-83
2021/04/15 05:25:12;;;;;;;14.60;11.45;;;-0.60;99.90;;;;;;4971821;28;20229;-84
2021/04/15 05:27:39;;;;;;;14.27;11.02;;;-0.50;99.90;;;;;;4973399;28;20288;-83
2021/04/15 05:30:16;;;;;;;14.68;11.63;;;-0.40;99.90;;;;;;4975043;28;20205;-84
2021/04/15 05:32:46;;;;;;;14.77;11.48;;;-0.30;99.90;;;;;;4976884;28;20217;-83
2021/04/15 05:35:17;;;;;;;14.13;12.00;;;-0.20;99.90;;;;;;4976278;28;20208;-83
2021/04/15 05:37:45;;;;;;;13.63;11.73;;;-0.10;99.90;;;;;;4960939;28;20445;-84
2021/04/15 05:40:11;;;;;;;15.07;12.07;;;0.10;99.90;;;;;;4961458;28;20783;-84
2021/04/15 05:42:47;;;;;;;20.47;12.40;;;0.10;99.90;;;;;;4975694;28;20224;-84
2021/04/15 05:45:24;;;;;;;18.03;13.30;;;0.20;99.90;;;;;;4964541;28;20488;-83
2021/04/15 05:47:55;;;;;;;14.70;11.53;;;0.30;99.90;;;;;;4955593;28;20515;-84
2021/04/15 05:50:27;;;;;;;14.43;11.67;;;0.40;99.90;;;;;;4962317;28;20488;-84
2021/04/15 05:53:07;;;;;;;19.07;13.30;;;0.50;99.90;;;;;;4978505;28;20441;-84
2021/04/15 05:55:45;;;;;;;17.00;13.60;;;0.60;99.90;;;;;;4974975;28;20863;-83
2021/04/15 05:58:43;;;;;;;16.80;13.87;;;0.70;99.90;;;;;;4959074;28;20449;-83
2021/04/15 06:01:15;;;;;;;18.43;12.93;;;0.90;99.90;;;;;;4951275;28;20445;-83
2021/04/15 06:04:03;;;;;;;17.27;13.90;;;1.00;99.90;;;;;;4946534;28;20484;-83
2021/04/15 06:06:33;;;;;;;20.60;13.23;;;1.10;99.90;;;;;;4974312;28;20477;-83
2021/04/15 06:09:00;;;;;;;19.20;14.47;;;1.30;99.90;;;;;;4970777;28;20566;-82
2021/04/15 06:11:44;;;;;;;19.47;14.97;;;1.30;99.90;;;;;;4973029;28;21179;-83
2021/04/15 06:14:38;;;;;;;19.70;14.17;;;1.30;99.90;;;;;;4969427;28;20469;-83
2021/04/15 06:17:19;;;;;;;17.73;12.70;;;1.40;99.90;;;;;;4956490;28;20846;-83
2021/04/15 06:19:50;;;;;;;15.43;13.57;;;1.50;99.90;;;;;;4959527;28;20465;-84
2021/04/15 06:22:20;;;;;;;19.33;14.50;;;1.50;99.90;;;;;;4957111;28;20811;-83
2021/04/15 06:24:56;;;;;;;18.57;14.67;;;1.50;99.90;;;;;;4975721;28;20472;-84
2021/04/15 06:27:22;;;;;;;17.47;13.67;;;1.60;99.90;;;;;;4980360;28;20470;-84
2021/04/15 06:30:11;;;;;;;15.87;13.53;;;1.60;99.90;;;;;;4989405;28;20475;-84
2021/04/15 06:33:02;;;;;;;18.33;14.27;;;1.70;99.90;;;;;;4955378;28;20436;-83
2021/04/15 06:35:31;;;;;;;16.63;13.63;;;1.80;99.90;;;;;;4962467;28;20535;-84
2021/04/15 06:38:09;;;;;;;19.87;14.03;;;2.00;99.90;;;;;;4981817;28;20417;-85
2021/04/15 06:40:53;;;;;;;16.20;13.87;;;2.10;99.90;;;;;;4964520;28;21853;-84
2021/04/15 06:43:48;;;;;;;17.13;14.40;;;2.30;99.90;;;;;;4972939;28;21072;-84
2021/04/15 06:46:39;;;;;;;14.97;11.50;;;2.40;99.90;;;;;;4957550;28;21072;-84
2021/04/15 06:49:42;;;;;;;19.03;12.73;;;2.70;99.90;;;;;;4978153;28;20452;-85
2021/04/15 06:52:28;;;;;;;14.27;12.73;;;2.70;99.90;;;;;;4976472;28;20450;-84
2021/04/15 06:55:38;;;;;;;14.37;11.93;;;2.70;99.90;;;;;;4978734;28;20498;-84
2021/04/15 06:58:09;;;;;;;15.60;13.20;;;2.70;99.90;;;;;;4945103;28;20444;-85
2021/04/15 07:01:09;;;;;;;14.40;12.90;;;2.60;99.90;;;;;;4961530;28;20473;-84
2021/04/15 07:04:02;;;;;;;16.00;14.20;;;2.50;99.90;;;;;;4978557;28;20445;-84
2021/04/15 07:06:48;;;;;;;18.33;13.90;;;2.60;99.90;;;;;;4977106;28;20500;-85
2021/04/15 07:09:22;;;;;;;18.77;14.90;;;2.70;99.90;;;;;;4973920;28;20788;-85
2021/04/15 07:12:13;;;;;;;13.90;12.40;;;3.00;99.90;;;;;;4966050;28;20529;-84
2021/04/15 07:15:16;;;;;;;16.80;12.20;;;3.20;99.90;;;;;;4978766;28;20492;-85
2021/04/15 07:18:06;;;;;;;18.77;13.03;;;3.10;99.90;;;;;;4964562;28;20800;-84
2021/04/15 07:21:01;;;;;;;16.00;13.47;;;3.30;99.90;;;;;;4979230;28;20501;-83
2021/04/15 07:23:35;;;;;;;15.43;11.30;;;3.40;99.90;;;;;;4974739;28;20541;-83
2021/04/15 07:26:40;;;;;;;10.57;9.40;;;3.70;99.90;;;;;;4978698;28;20882;-84
2021/04/15 07:29:21;;;;;;;13.87;8.03;;;3.80;99.90;;;;;;4975353;28;21751;-86
2021/04/15 07:32:04;;;;;;;9.03;8.13;;;4.00;99.90;;;;;;4978422;28;20439;-86
2021/04/15 07:34:36;;;;;;;11.43;8.30;;;4.10;99.90;;;;;;4976855;28;20506;-84
2021/04/15 07:37:17;;;;;;;13.53;8.70;;;4.20;99.90;;;;;;4975777;28;20453;-84
2021/04/15 07:40:01;;;;;;;10.77;9.63;;;4.40;99.90;;;;;;4967706;28;20448;-84
2021/04/15 07:42:58;;;;;;;10.60;9.50;;;4.40;99.90;;;;;;4971505;28;20444;-84
2021/04/15 07:45:48;;;;;;;9.93;7.93;;;4.70;99.90;;;;;;4957070;28;20493;-84
2021/04/15 07:49:02;;;;;;;7.87;7.07;;;4.80;99.90;;;;;;4959471;28;20799;-84
2021/04/15 07:51:51;;;;;;;9.07;8.07;;;4.90;99.90;;;;;;4994808;28;20446;-84
2021/04/15 07:54:23;;;;;;;7.33;6.63;;;5.10;99.90;;;;;;4955335;28;20449;-83
2021/04/15 07:57:13;;;;;;;10.30;7.43;;;5.40;99.90;;;;;;4946187;28;20461;-84
2021/04/15 07:59:53;;;;;;;12.03;8.63;;;5.50;99.90;;;;;;4961257;28;21484;-84
2021/04/15 08:02:48;;;;;;;9.53;8.03;;;5.60;99.90;;;;;;4977161;28;20441;-83
2021/04/15 08:05:17;;;;;;;10.40;8.33;;;5.70;99.90;;;;;;4960522;28;20552;-84
2021/04/15 08:08:00;;;;;;;8.80;7.90;;;6.00;99.90;;;;;;4971705;28;20438;-84
2021/04/15 08:11:24;;;;;;;10.40;9.20;;;6.10;99.90;;;;;;4988856;28;20445;-85
2021/04/15 08:14:24;;;;;;;14.80;9.23;;;6.30;99.90;;;;;;4892583;29;20468;-88
2021/04/15 08:16:57;;;;;;;10.97;8.23;;;6.20;99.90;;;;;;4932795;28;20457;-90
2021/04/15 08:20:10;;;;;;;8.33;7.50;;;6.50;99.90;;;;;;4943198;28;20449;-88
2021/04/15 08:23:16;;;;;;;8.37;6.87;;;6.70;99.90;;;;;;4904575;29;20460;-86
2021/04/15 08:26:10;;;;;;;7.40;6.70;;;6.90;99.90;;;;;;4952287;28;20854;-86
2021/04/15 08:29:09;;;;;;;8.30;7.50;;;7.10;98.60;;;;;;4945110;28;20800;-87
2021/04/15 08:31:50;;;;;;;10.27;9.20;;;7.10;99.90;;;;;;4978664;28;20519;-85
2021/04/15 08:34:35;;;;;;;8.70;7.80;;;7.20;99.90;;;;;;4974936;28;20457;-88
2021/04/15 08:37:27;;;;;;;10.77;8.47;;;7.10;99.90;;;;;;4961907;28;20481;-85
2021/04/15 08:40:08;;;;;;;7.83;7.10;;;6.90;99.00;;;;;;4977933;28;20441;-84
2021/04/15 08:42:46;;;;;;;9.60;7.23;;;7.00;99.40;;;;;;4970575;28;20781;-84
2021/04/15 08:45:38;;;;;;;14.87;9.23;;;6.90;99.90;;;;;;4966047;28;20570;-83
2021/04/15 08:48:30;;;;;;;9.63;8.63;;;7.00;99.70;;;;;;4945789;28;20449;-85
2021/04/15 08:51:35;;;;;;;11.23;8.67;;;7.10;99.90;;;;;;4938808;28;20438;-85
2021/04/15 08:54:24;;;;;;;9.70;8.70;;;7.60;99.70;;;;;;4924473;28;20969;-85
2021/04/15 08:57:12;;;;;;;10.83;8.90;;;7.60;99.60;;;;;;4958006;28;20485;-85
2021/04/15 09:00:09;;;;;;;9.53;8.53;;;7.80;99.90;;;;;;4959543;28;20447;-86
2021/04/15 09:03:10;;;;;;;9.67;7.90;;;7.90;98.30;;;;;;4976066;28;21003;-84
2021/04/15 09:05:58;;;;;;;13.13;9.50;;;8.20;97.90;;;;;;4974226;28;20809;-85
2021/04/15 09:08:42;;;;;;;9.40;8.40;;;7.90;97.30;;;;;;4958815;28;20534;-86
2021/04/15 09:11:24;;;;;;;9.23;8.30;;;8.10;97.40;;;;;;4969219;28;20445;-85
2021/04/15 09:14:15;;;;;;;7.93;7.27;;;8.30;98.80;;;;;;4962024;28;20967;-86
2021/04/15 09:16:53;;;;;;;9.87;8.03;;;8.70;95.40;;;;;;4957340;28;20459;-86
2021/04/15 09:19:56;;;;;;;8.40;6.70;;;9.10;98.90;;;;;;4991050;28;20472;-85
2021/04/15 09:22:54;;;;;;;6.67;6.00;;;9.40;95.80;;;;;;4971305;28;20452;-86
2021/04/15 09:25:47;;;;;;;8.63;5.80;;;9.40;93.00;;;;;;4971521;28;20487;-86
2021/04/15 09:28:35;;;;;;;6.50;5.67;;;9.40;93.30;;;;;;4975632;28;20500;-86
2021/04/15 09:31:49;;;;;;;7.20;6.50;;;9.70;93.20;;;;;;4958081;28;21478;-86
2021/04/15 09:34:52;;;;;;;6.90;6.17;;;9.90;91.40;;;;;;4959851;28;20440;-86
2021/04/15 09:37:33;;;;;;;6.37;5.43;;;9.70;90.90;;;;;;4967714;28;21178;-86
2021/04/15 09:40:03;;;;;;;6.30;5.80;;;9.20;90.40;;;;;;4958821;28;20445;-86
2021/04/15 09:42:37;;;;;;;6.63;5.93;;;9.70;90.40;;;;;;4989411;28;20901;-86
2021/04/15 09:45:17;;;;;;;5.93;5.40;;;10.00;85.60;;;;;;4971335;28;20479;-86
2021/04/15 09:48:10;;;;;;;6.43;5.00;;;9.80;86.80;;;;;;4974604;28;20444;-86
2021/04/15 09:51:09;;;;;;;6.17;4.90;;;10.30;84.80;;;;;;4970344;28;20455;-86
2021/04/15 09:54:01;;;;;;;4.90;4.50;;;10.30;82.90;;;;;;4968970;28;20484;-85
2021/04/15 09:56:49;;;;;;;4.23;3.80;;;9.60;82.80;;;;;;4953306;28;20792;-86
2021/04/15 09:59:27;;;;;;;6.57;3.97;;;9.00;83.30;;;;;;4973701;28;20472;-86
2021/04/15 10:02:19;;;;;;;5.23;4.07;;;8.70;85.90;;;;;;4973973;28;20451;-86
2021/04/15 10:05:07;;;;;;;5.80;4.43;;;8.80;85.70;;;;;;4958446;28;20483;-86
2021/04/15 10:07:46;;;;;;;3.70;3.40;;;8.80;85.90;;;;;;4972729;28;20531;-85
2021/04/15 10:10:25;;;;;;;5.43;3.60;;;8.90;83.00;;;;;;4987723;28;20476;-85
2021/04/15 10:13:15;;;;;;;5.93;4.17;;;8.60;81.60;;;;;;4971484;28;20452;-87
2021/04/15 10:15:48;;;;;;;3.40;3.20;;;8.40;84.40;;;;;;4944245;28;20453;-87
2021/04/15 10:18:43;;;;;;;3.97;3.23;;;8.20;81.70;;;;;;4993872;28;20452;-87
2021/04/15 10:21:30;;;;;;;3.30;3.10;;;8.40;80.50;;;;;;4963276;28;20471;-87
2021/04/15 10:24:06;;;;;;;3.57;3.23;;;8.40;78.10;;;;;;4969961;28;20962;-87
2021/04/15 10:27:01;;;;;;;3.77;2.50;;;8.50;78.80;;;;;;4975466;28;20981;-86
2021/04/15 10:29:47;;;;;;;3.60;3.30;;;8.60;78.30;;;;;;4966066;28;20796;-86
2021/04/15 10:32:31;;;;;;;3.50;3.10;;;9.00;78.70;;;;;;4971847;28;20480;-86
2021/04/15 10:35:45;;;;;;;5.13;3.70;;;9.40;75.50;;;;;;4956723;28;21036;-86
2021/04/15 10:38:16;;;;;;;4.00;3.70;;;9.10;75.60;;;;;;4961553;28;20463;-87
2021/04/15 10:41:32;;;;;;;4.87;3.50;;;9.30;78.10;;;;;;4973955;28;20434;-87
2021/04/15 10:44:38;;;;;;;3.37;3.07;;;9.00;78.40;;;;;;4968685;28;20818;-88
2021/04/15 10:47:38;;;;;;;3.30;3.03;;;8.80;77.70;;;;;;4953386;28;20817;-87
2021/04/15 10:50:19;;;;;;;2.90;2.70;;;9.00;78.10;;;;;;4953792;28;20512;-86
2021/04/15 10:53:12;;;;;;;3.73;3.40;;;8.50;75.00;;;;;;4968603;28;20449;-88
2021/04/15 10:56:03;;;;;;;3.07;2.60;;;8.30;77.40;;;;;;4956973;28;20601;-87
2021/04/15 10:58:35;;;;;;;2.53;2.20;;;8.40;76.80;;;;;;4940817;28;20449;-87
2021/04/15 11:01:27;;;;;;;3.23;2.93;;;8.60;75.80;;;;;;4964593;28;20442;-87
2021/04/15 11:03:55;;;;;;;3.30;2.93;;;8.40;73.80;;;;;;4945065;28;20817;-85
2021/04/15 11:07:03;;;;;;;8.37;3.30;;;8.20;74.10;;;;;;4941977;28;20453;-85
2021/04/15 11:09:41;;;;;;;2.83;2.63;;;8.40;74.40;;;;;;4953385;28;20801;-85
2021/04/15 11:12:16;;;;;;;3.73;2.47;;;8.60;75.80;;;;;;4947559;28;20521;-87
2021/04/15 11:14:45;;;;;;;3.30;2.73;;;8.80;72.60;;;;;;4947162;28;20461;-85
2021/04/15 11:17:24;;;;;;;3.50;2.77;;;8.20;67.80;;;;;;4973123;28;21121;-85
2021/04/15 11:20:06;;;;;;;4.20;2.50;;;8.20;67.70;;;;;;4961071;28;21028;-85
2021/04/15 11:22:51;;;;;;;4.40;2.70;;;9.00;69.10;;;;;;4970597;28;20460;-86
2021/04/15 11:25:32;;;;;;;3.43;3.00;;;10.40;64.70;;;;;;4961019;28;20516;-85
2021/04/15 11:28:03;;;;;;;3.50;2.10;;;11.20;58.60;;;;;;4979402;28;20443;-85
2021/04/15 11:30:32;;;;;;;4.37;3.20;;;12.00;53.50;;;;;;4976494;28;20474;-85
2021/04/15 11:32:58;;;;;;;6.03;4.60;;;12.90;59.20;;;;;;4957577;28;20836;-83
2021/04/15 11:35:24;;;;;;;4.10;3.70;;;11.60;63.80;;;;;;4946307;28;20452;-83
2021/04/15 11:38:04;;;;;;;5.33;4.40;;;10.60;66.50;;;;;;4958043;28;20436;-82
2021/04/15 11:40:45;;;;;;;5.80;4.67;;;11.00;75.40;;;;;;4972983;28;20193;-82
2021/04/15 11:43:35;;;;;;;5.50;4.30;;;11.20;73.70;;;;;;4958993;28;20453;-82
2021/04/15 11:46:17;;;;;;;5.87;4.80;;;11.90;75.00;;;;;;4961966;28;20568;-81
2021/04/15 11:49:01;;;;;;;5.30;4.80;;;11.10;74.00;;;;;;4988605;28;20836;-82
2021/04/15 11:51:29;;;;;;;5.03;4.57;;;10.80;77.80;;;;;;4972955;28;20446;-81
2021/04/15 11:53:57;;;;;;;4.43;4.07;;;10.80;76.90;;;;;;4974029;28;20457;-82
2021/04/15 11:56:23;;;;;;;5.00;4.10;;;10.30;74.00;;;;;;4974319;28;20998;-81
2021/04/15 11:58:50;;;;;;;4.80;3.80;;;10.70;77.50;;;;;;4957135;28;20464;-82
2021/04/15 12:01:29;;;;;;;5.73;3.80;;;11.50;77.70;;;;;;4961471;28;20457;-81
2021/04/15 12:04:00;;;;;;;3.63;3.33;;;12.60;71.10;;;;;;4974752;28;20480;-81
2021/04/15 12:06:41;;;;;;;4.60;3.90;;;13.10;68.60;;;;;;4957270;28;20548;-82
2021/04/15 12:09:11;;;;;;;4.10;3.80;;;12.80;65.50;;;;;;4955449;28;20580;-81
2021/04/15 12:11:46;;;;;;;4.70;4.20;;;13.40;63.60;;;;;;4958917;28;20556;-81
2021/04/15 12:14:16;;;;;;;7.10;6.47;;;13.10;66.10;;;;;;4959351;28;20484;-81
2021/04/15 12:16:58;;;;;;;4.63;4.10;;;11.90;58.00;;;;;;4974408;28;20456;-82
2021/04/15 12:19:29;;;;;;;4.50;3.70;;;9.80;62.40;;;;;;4956624;28;20477;-81
2021/04/15 12:22:18;;;;;;;6.20;3.70;;;9.40;68.00;;;;;;4977810;28;20485;-82
2021/04/15 12:24:46;;;;;;;4.27;3.63;;;9.90;68.30;;;;;;4975987;28;20477;-82
2021/04/15 12:27:25;;;;;;;4.23;2.90;;;10.10;67.80;;;;;;4956193;28;20455;-82
2021/04/15 12:30:07;;;;;;;3.47;3.17;;;10.00;69.30;;;;;;4956956;28;20515;-81
2021/04/15 12:32:51;;;;;;;3.83;3.23;;;10.10;69.80;;;;;;4972013;28;20540;-82
2021/04/15 12:35:32;;;;;;;4.07;3.60;;;10.00;69.30;;;;;;4968073;28;20457;-82
2021/04/15 12:38:25;;;;;;;8.63;3.60;;;10.20;69.30;;;;;;4971724;28;20533;-81
2021/04/15 12:40:57;;;;;;;6.30;3.13;;;10.00;71.70;;;;;;4960961;28;20465;-82
2021/04/15 12:43:33;;;;;;;3.60;3.30;;;9.90;72.50;;;;;;4955682;28;20457;-81
2021/04/15 12:46:00;;;;;;;4.20;3.80;;;9.80;72.00;;;;;;4975400;28;20540;-82
2021/04/15 12:48:46;;;;;;;4.07;3.67;;;9.70;73.20;;;;;;4973211;28;20462;-82
2021/04/15 12:51:18;;;;;;;4.40;4.00;;;9.50;73.80;;;;;;4944269;28;20840;-82
2021/04/15 12:53:46;;;;;;;3.87;3.57;;;8.90;74.60;;;;;;4954162;28;20457;-82
2021/04/15 12:56:29;;;;;;;3.50;3.30;;;9.30;76.90;;;;;;4968324;28;20510;-82
2021/04/15 12:58:55;;;;;;;4.63;4.10;;;10.80;71.70;;;;;;4958403;28;20525;-84
2021/04/15 13:01:21;;;;;;;4.70;4.20;;;11.50;65.00;;;;;;4966279;28;20459;-82
2021/04/15 13:03:49;;;;;;;3.60;3.20;;;11.70;63.70;;;;;;4974014;28;20463;-82
2021/04/15 13:06:17;;;;;;;3.50;3.20;;;11.50;62.00;;;;;;4935748;28;20493;-82
2021/04/15 13:08:56;;;;;;;5.30;3.57;;;11.60;63.50;;;;;;4957518;28;20454;-83
2021/04/15 13:11:21;;;;;;;4.97;3.57;;;10.70;63.80;;;;;;4954726;28;20533;-82
2021/04/15 13:13:54;;;;;;;2.80;2.60;;;10.40;62.40;;;;;;4959625;28;20601;-82
2021/04/15 13:16:32;;;;;;;3.03;2.67;;;10.00;60.60;;;;;;4955865;28;20244;-81
2021/04/15 13:19:00;;;;;;;2.50;2.30;;;9.70;61.50;;;;;;4959643;28;20451;-82
2021/04/15 13:21:35;;;;;;;3.00;2.80;;;9.40;60.70;;;;;;4960847;28;20480;-83
2021/04/15 13:24:21;;;;;;;2.97;2.73;;;9.20;62.30;;;;;;4960141;28;20530;-83
2021/04/15 13:26:47;;;;;;;2.33;2.13;;;9.20;61.20;;;;;;4968636;28;20826;-82
2021/04/15 13:29:16;;;;;;;3.70;2.80;;;9.90;65.50;;;;;;4970746;28;20636;-82
2021/04/15 13:31:49;;;;;;;5.63;2.83;;;11.30;65.80;;;;;;4952501;28;20444;-82
2021/04/15 13:34:49;;;;;;;2.93;2.73;;;12.80;54.80;;;;;;4970034;28;20454;-82
2021/04/15 13:37:46;;;;;;;2.83;2.60;;;14.00;48.40;;;;;;4966299;28;20995;-83
2021/04/15 13:40:22;;;;;;;2.93;2.60;;;13.50;48.20;;;;;;4966842;28;21634;-83
2021/04/15 13:42:48;;;;;;;3.20;3.00;;;14.20;47.40;;;;;;4952969;28;20810;-83
2021/04/15 13:45:37;;;;;;;4.47;3.40;;;14.70;44.90;;;;;;4956311;28;20480;-84
2021/04/15 13:48:03;;;;;;;3.03;2.73;;;14.40;45.00;;;;;;4970749;28;20220;-83
2021/04/15 13:51:02;;;;;;;3.17;2.97;;;14.40;45.30;;;;;;4931894;28;20462;-83
2021/04/15 13:53:54;;;;;;;3.93;3.63;;;14.10;41.40;;;;;;4889759;29;20506;-83